Time;durP1;ratioP1;P1;durP2;ratioP2;P2;SDS_P1;SDS_P2;PMS_P1;PMS_P2;Temp;Humidity;BMP_temperature;BMP_pressure;BME280_temperature;BME280_humidity;BME280_pressure;Samples;Min_cycle;Max_cycle;Signal;HPM_P1;HPM_P2
2021/11/25 00:00:45;;;;;;;66.80;33.00;;;;;;;;;;5000980;28;20212;-71
2021/11/25 00:03:12;;;;;;;62.93;31.63;;;;;;;;;;4999978;28;20235;-71
2021/11/25 00:05:38;;;;;;;67.47;34.23;;;;;;;;;;5000594;28;20223;-71
2021/11/25 00:08:05;;;;;;;60.23;31.30;;;;;;;;;;5000745;28;20223;-71
2021/11/25 00:10:32;;;;;;;68.07;34.17;;;;;;;;;;5000586;28;20220;-71
2021/11/25 00:12:59;;;;;;;66.90;35.43;;;;;;;;;;4999617;28;20208;-71
2021/11/25 00:15:26;;;;;;;67.03;34.47;;;;;;;;;;5001166;28;20286;-71
2021/11/25 00:17:53;;;;;;;65.43;34.13;;;;;;;;;;5000254;28;20228;-71
2021/11/25 00:20:20;;;;;;;64.77;34.70;;;;;;;;;;4999983;28;20215;-71
2021/11/25 00:22:47;;;;;;;65.27;33.93;;;;;;;;;;5000197;28;20310;-71
2021/11/25 00:25:15;;;;;;;68.67;35.43;;;;;;;;;;5000855;28;20290;-71
2021/11/25 00:27:42;;;;;;;63.53;33.60;;;;;;;;;;4999828;28;20216;-71
2021/11/25 00:30:09;;;;;;;68.67;35.27;;;;;;;;;;5000031;28;20255;-72
2021/11/25 00:32:37;;;;;;;70.33;34.83;;;;;;;;;;4999955;28;20224;-72
2021/11/25 00:35:04;;;;;;;72.17;38.00;;;;;;;;;;4998483;28;20643;-71
2021/11/25 00:37:31;;;;;;;66.97;34.07;;;;;;;;;;5000072;28;20208;-72
2021/11/25 00:39:57;;;;;;;68.77;36.13;;;;;;;;;;5000287;28;20302;-72
2021/11/25 00:42:24;;;;;;;73.93;35.80;;;;;;;;;;4999658;28;20208;-71
2021/11/25 00:44:50;;;;;;;71.90;37.83;;;;;;;;;;4999878;28;20216;-71
2021/11/25 00:47:17;;;;;;;70.70;36.10;;;;;;;;;;5000240;28;20228;-71
2021/11/25 00:49:44;;;;;;;70.27;35.73;;;;;;;;;;4999756;28;20629;-71
2021/11/25 00:52:11;;;;;;;71.07;36.40;;;;;;;;;;4999295;28;20235;-71
2021/11/25 00:54:37;;;;;;;78.33;38.57;;;;;;;;;;5000575;28;20288;-71
2021/11/25 00:57:04;;;;;;;66.07;36.10;;;;;;;;;;4999670;28;20272;-72
2021/11/25 00:59:31;;;;;;;67.27;36.17;;;;;;;;;;4999390;28;20270;-71
2021/11/25 01:01:57;;;;;;;70.83;37.37;;;;;;;;;;5000679;28;21235;-71
2021/11/25 01:04:24;;;;;;;76.83;36.67;;;;;;;;;;5000098;28;20305;-71
2021/11/25 01:06:52;;;;;;;69.97;36.80;;;;;;;;;;4999476;28;20694;-71
2021/11/25 01:09:18;;;;;;;79.13;39.07;;;;;;;;;;4999998;28;20216;-71
2021/11/25 01:11:45;;;;;;;76.00;38.30;;;;;;;;;;5000229;28;20232;-71
2021/11/25 01:14:12;;;;;;;70.43;36.90;;;;;;;;;;4999329;28;20488;-71
2021/11/25 01:16:38;;;;;;;68.93;35.97;;;;;;;;;;5000217;28;20212;-71
2021/11/25 01:19:05;;;;;;;75.40;39.17;;;;;;;;;;5003199;28;20236;-71
2021/11/25 01:21:31;;;;;;;70.07;36.23;;;;;;;;;;5003343;28;20673;-71
2021/11/25 01:23:59;;;;;;;73.37;38.73;;;;;;;;;;5003359;28;20644;-71
2021/11/25 01:26:26;;;;;;;81.67;38.10;;;;;;;;;;5003724;28;20215;-71
2021/11/25 01:28:52;;;;;;;75.13;38.03;;;;;;;;;;5003028;28;20905;-71
2021/11/25 01:31:19;;;;;;;71.67;38.43;;;;;;;;;;5003250;28;20240;-71
2021/11/25 01:33:45;;;;;;;72.57;36.83;;;;;;;;;;5002856;28;20274;-71
2021/11/25 01:36:11;;;;;;;74.57;38.87;;;;;;;;;;5003039;28;20216;-71
2021/11/25 01:38:38;;;;;;;69.57;37.40;;;;;;;;;;5003963;28;20216;-71
2021/11/25 01:41:06;;;;;;;74.50;36.77;;;;;;;;;;5003440;28;20218;-71
2021/11/25 01:43:37;;;;;;;71.97;40.07;;;;;;;;;;5002039;28;20208;-72
2021/11/25 01:46:11;;;;;;;68.53;36.80;;;;;;;;;;5002509;28;20276;-71
2021/11/25 01:48:38;;;;;;;73.47;37.50;;;;;;;;;;5003537;28;20259;-71
2021/11/25 01:51:04;;;;;;;73.00;37.20;;;;;;;;;;5003127;28;20278;-71
2021/11/25 01:53:30;;;;;;;73.53;37.97;;;;;;;;;;5003268;28;20257;-71
2021/11/25 01:55:58;;;;;;;75.87;38.13;;;;;;;;;;5003696;28;20216;-71
2021/11/25 01:58:26;;;;;;;64.67;35.43;;;;;;;;;;5002456;28;20243;-71
2021/11/25 02:00:54;;;;;;;67.87;37.77;;;;;;;;;;5002319;28;20258;-71
2021/11/25 02:03:21;;;;;;;69.10;34.70;;;;;;;;;;5003597;28;20227;-71
2021/11/25 02:05:48;;;;;;;69.77;37.90;;;;;;;;;;5002632;28;20219;-72
2021/11/25 02:08:14;;;;;;;67.40;37.77;;;;;;;;;;5002384;28;20220;-72
2021/11/25 02:10:44;;;;;;;68.73;36.67;;;;;;;;;;5003067;28;20709;-71
2021/11/25 02:13:11;;;;;;;65.17;37.67;;;;;;;;;;5003100;28;20278;-72
2021/11/25 02:15:39;;;;;;;70.60;38.67;;;;;;;;;;5002809;28;20639;-71
2021/11/25 02:18:08;;;;;;;69.13;37.53;;;;;;;;;;5001995;28;20231;-71
2021/11/25 02:20:38;;;;;;;58.63;35.30;;;;;;;;;;5003140;28;20305;-71
2021/11/25 02:23:06;;;;;;;68.13;37.80;;;;;;;;;;5001556;28;20211;-71
2021/11/25 02:25:32;;;;;;;67.93;35.10;;;;;;;;;;5002349;28;20212;-71
2021/11/25 02:27:58;;;;;;;62.17;35.87;;;;;;;;;;5002851;28;20210;-71
2021/11/25 02:30:25;;;;;;;56.40;34.20;;;;;;;;;;5001526;28;20220;-71
2021/11/25 02:32:52;;;;;;;59.20;35.93;;;;;;;;;;5001839;28;20306;-71
2021/11/25 02:35:20;;;;;;;61.67;35.77;;;;;;;;;;5002909;28;20250;-71
2021/11/25 02:37:49;;;;;;;62.13;35.53;;;;;;;;;;5001872;28;20216;-71
2021/11/25 02:40:22;;;;;;;56.77;34.40;;;;;;;;;;5001325;28;20243;-71
2021/11/25 02:42:51;;;;;;;54.27;33.57;;;;;;;;;;5002314;28;20417;-71
2021/11/25 02:45:19;;;;;;;58.30;36.57;;;;;;;;;;5002039;28;20218;-71
2021/11/25 02:47:46;;;;;;;56.07;35.70;;;;;;;;;;5000888;28;20798;-71
2021/11/25 02:50:12;;;;;;;57.93;34.70;;;;;;;;;;5002427;28;20302;-71
2021/11/25 02:52:43;;;;;;;55.93;34.97;;;;;;;;;;5002141;28;20240;-71
2021/11/25 02:55:11;;;;;;;56.60;34.87;;;;;;;;;;5001543;28;20770;-71
2021/11/25 02:57:39;;;;;;;57.23;35.47;;;;;;;;;;5002333;28;20240;-70
2021/11/25 03:00:15;;;;;;;55.33;36.57;;;;;;;;;;5002466;28;20262;-70
2021/11/25 03:02:41;;;;;;;56.77;34.80;;;;;;;;;;5001013;28;20317;-70
2021/11/25 03:05:10;;;;;;;57.43;35.87;;;;;;;;;;5001584;28;20293;-70
2021/11/25 03:07:36;;;;;;;57.87;35.97;;;;;;;;;;5002549;28;20302;-70
2021/11/25 03:10:03;;;;;;;59.33;38.00;;;;;;;;;;5001024;28;20216;-70
2021/11/25 03:12:31;;;;;;;58.77;36.77;;;;;;;;;;5001152;28;20294;-70
2021/11/25 03:14:57;;;;;;;55.10;36.27;;;;;;;;;;5001848;28;20212;-70
2021/11/25 03:17:24;;;;;;;58.37;36.97;;;;;;;;;;5000749;28;20722;-70
2021/11/25 03:19:50;;;;;;;59.40;36.13;;;;;;;;;;5001047;28;20208;-70
2021/11/25 03:22:16;;;;;;;59.13;37.57;;;;;;;;;;5001604;28;20208;-70
2021/11/25 03:24:43;;;;;;;55.83;37.20;;;;;;;;;;5000542;28;20250;-70
2021/11/25 03:27:09;;;;;;;60.70;37.90;;;;;;;;;;5000234;28;20243;-70
2021/11/25 03:29:37;;;;;;;62.40;37.13;;;;;;;;;;5001934;28;20271;-70
2021/11/25 03:32:04;;;;;;;63.47;38.27;;;;;;;;;;5000987;28;20282;-70
2021/11/25 03:34:30;;;;;;;59.80;37.40;;;;;;;;;;5000681;28;20651;-70
2021/11/25 03:36:57;;;;;;;59.17;37.13;;;;;;;;;;5001321;28;20219;-69
2021/11/25 03:39:23;;;;;;;60.67;37.87;;;;;;;;;;5001476;28;20212;-70
2021/11/25 03:41:50;;;;;;;60.83;39.13;;;;;;;;;;4999877;28;21164;-70
2021/11/25 03:44:16;;;;;;;61.67;38.17;;;;;;;;;;5000494;28;20212;-69
2021/11/25 03:46:44;;;;;;;63.23;38.53;;;;;;;;;;5001702;28;21221;-70
2021/11/25 03:49:10;;;;;;;58.93;38.93;;;;;;;;;;4999648;28;20318;-70
2021/11/25 03:51:37;;;;;;;62.50;39.37;;;;;;;;;;5000870;28;20216;-70
2021/11/25 03:54:03;;;;;;;60.83;38.13;;;;;;;;;;5001385;28;20760;-72
2021/11/25 03:56:30;;;;;;;62.40;39.23;;;;;;;;;;5000431;28;20243;-69
2021/11/25 03:58:56;;;;;;;65.03;40.80;;;;;;;;;;5000224;28;20243;-70
2021/11/25 04:01:23;;;;;;;65.50;41.27;;;;;;;;;;5000984;28;20215;-70
2021/11/25 04:03:51;;;;;;;62.80;39.90;;;;;;;;;;5000593;28;20242;-70
2021/11/25 04:06:18;;;;;;;62.53;37.03;;;;;;;;;;5000594;28;20255;-70
2021/11/25 04:08:45;;;;;;;62.70;38.90;;;;;;;;;;5000735;28;20212;-70
2021/11/25 04:11:11;;;;;;;59.53;35.70;;;;;;;;;;5001096;28;20216;-70
2021/11/25 04:13:37;;;;;;;63.43;37.57;;;;;;;;;;5000163;28;20227;-70
2021/11/25 04:16:05;;;;;;;56.93;36.53;;;;;;;;;;5000471;28;20219;-71
2021/11/25 04:18:31;;;;;;;60.33;38.60;;;;;;;;;;5000335;28;20294;-70
2021/11/25 04:20:59;;;;;;;61.67;36.13;;;;;;;;;;4999618;28;20410;-70
2021/11/25 04:23:25;;;;;;;63.07;37.50;;;;;;;;;;5000695;28;20208;-70
2021/11/25 04:25:51;;;;;;;64.40;39.37;;;;;;;;;;5001304;28;20258;-70
2021/11/25 04:28:18;;;;;;;62.23;38.97;;;;;;;;;;5000130;28;20265;-70
2021/11/25 04:35:27;;;;;;;62.23;37.70;;;;;;;;;;5000110;28;20749;-70
2021/11/25 04:36:25;;;;;;;63.37;38.40;;;;;;;;;;5000946;28;20215;-70
2021/11/25 04:38:51;;;;;;;62.90;40.63;;;;;;;;;;5000381;28;20212;-70
2021/11/25 04:41:18;;;;;;;63.50;40.33;;;;;;;;;;5000675;28;20721;-70
2021/11/25 04:43:44;;;;;;;60.57;37.87;;;;;;;;;;5000478;28;20216;-71
2021/11/25 04:46:11;;;;;;;65.13;40.20;;;;;;;;;;4999738;28;20224;-70
2021/11/25 04:48:37;;;;;;;70.73;42.67;;;;;;;;;;4999741;28;20744;-71
2021/11/25 04:51:04;;;;;;;63.33;39.50;;;;;;;;;;5000469;28;20211;-70
2021/11/25 04:53:31;;;;;;;64.47;41.13;;;;;;;;;;5002328;28;20231;-70
2021/11/25 04:55:58;;;;;;;64.10;39.30;;;;;;;;;;5003154;28;20215;-71
2021/11/25 04:58:24;;;;;;;62.50;40.50;;;;;;;;;;5004290;28;20580;-70
2021/11/25 05:00:51;;;;;;;63.57;39.60;;;;;;;;;;5004112;28;20285;-70
2021/11/25 05:03:17;;;;;;;60.67;38.03;;;;;;;;;;5003438;28;20228;-70
2021/11/25 05:05:44;;;;;;;63.37;40.20;;;;;;;;;;5003645;28;20289;-70
2021/11/25 05:08:11;;;;;;;63.17;39.00;;;;;;;;;;5003901;28;20290;-70
2021/11/25 05:10:39;;;;;;;67.97;41.53;;;;;;;;;;5003576;28;20216;-71
2021/11/25 05:13:05;;;;;;;61.00;40.73;;;;;;;;;;5002503;28;20231;-70
2021/11/25 05:15:32;;;;;;;61.27;40.33;;;;;;;;;;5004218;28;20444;-70
2021/11/25 05:17:58;;;;;;;55.87;36.03;;;;;;;;;;5001708;28;20224;-71
2021/11/25 05:20:25;;;;;;;61.90;39.73;;;;;;;;;;5003391;28;20215;-70
2021/11/25 05:22:51;;;;;;;60.70;39.67;;;;;;;;;;5003384;28;20211;-72
2021/11/25 05:25:18;;;;;;;62.10;40.57;;;;;;;;;;5003164;28;20208;-71
2021/11/25 05:27:46;;;;;;;63.93;39.07;;;;;;;;;;5002907;28;20216;-70
2021/11/25 05:30:16;;;;;;;61.70;38.30;;;;;;;;;;5003849;28;20266;-74
2021/11/25 05:32:43;;;;;;;63.83;40.07;;;;;;;;;;5002253;28;20235;-75
2021/11/25 05:35:11;;;;;;;65.10;40.17;;;;;;;;;;5003085;28;20532;-75
2021/11/25 05:37:38;;;;;;;53.47;34.00;;;;;;;;;;5004648;28;20299;-75
2021/11/25 05:40:06;;;;;;;64.27;39.53;;;;;;;;;;5002981;28;20263;-74
2021/11/25 05:42:35;;;;;;;66.43;41.07;;;;;;;;;;5002653;28;20223;-76
2021/11/25 05:45:04;;;;;;;65.57;42.50;;;;;;;;;;5003751;28;20218;-76
2021/11/25 05:47:33;;;;;;;64.03;40.10;;;;;;;;;;5002564;28;20702;-77
2021/11/25 05:50:00;;;;;;;69.20;42.63;;;;;;;;;;5002630;28;20614;-74
2021/11/25 05:52:26;;;;;;;62.80;39.73;;;;;;;;;;5003074;28;20212;-74
2021/11/25 05:54:53;;;;;;;66.87;41.60;;;;;;;;;;5003451;28;20209;-74
2021/11/25 05:57:20;;;;;;;61.70;39.23;;;;;;;;;;5002815;28;20774;-74
2021/11/25 05:59:46;;;;;;;63.43;40.13;;;;;;;;;;5002891;28;20208;-75
2021/11/25 06:02:15;;;;;;;61.37;39.97;;;;;;;;;;5002233;28;20211;-74
2021/11/25 06:04:42;;;;;;;62.37;40.47;;;;;;;;;;5001463;28;20212;-75
2021/11/25 06:07:08;;;;;;;70.00;42.80;;;;;;;;;;5002799;28;20901;-74
2021/11/25 06:09:37;;;;;;;69.43;41.93;;;;;;;;;;5003031;28;20266;-74
2021/11/25 06:12:05;;;;;;;65.27;38.47;;;;;;;;;;5002172;28;20318;-74
2021/11/25 06:14:32;;;;;;;63.67;39.83;;;;;;;;;;5002058;28;20350;-74
2021/11/25 06:16:58;;;;;;;65.23;41.27;;;;;;;;;;5002558;28;20705;-75
2021/11/25 06:19:26;;;;;;;62.13;38.57;;;;;;;;;;5002090;28;20827;-74
2021/11/25 06:21:52;;;;;;;62.77;38.50;;;;;;;;;;5002341;28;20208;-76
2021/11/25 06:24:18;;;;;;;62.00;40.33;;;;;;;;;;5002361;28;20215;-76
2021/11/25 06:26:49;;;;;;;68.83;43.37;;;;;;;;;;5002071;28;20721;-74
2021/11/25 06:29:15;;;;;;;67.53;41.23;;;;;;;;;;5001544;28;20223;-74
2021/11/25 06:31:42;;;;;;;65.60;40.53;;;;;;;;;;5002205;28;20207;-74
2021/11/25 06:34:09;;;;;;;64.83;40.73;;;;;;;;;;5001000;28;20309;-73
2021/11/25 06:36:37;;;;;;;66.97;39.43;;;;;;;;;;5001580;28;20575;-73
2021/11/25 06:39:04;;;;;;;64.33;41.93;;;;;;;;;;5001695;28;20220;-74
2021/11/25 06:41:31;;;;;;;69.57;42.90;;;;;;;;;;5001610;28;20215;-73
2021/11/25 06:43:57;;;;;;;66.53;42.90;;;;;;;;;;5000943;28;20465;-73
2021/11/25 06:46:24;;;;;;;69.83;44.23;;;;;;;;;;5001668;28;20313;-75
2021/11/25 06:48:50;;;;;;;68.30;41.93;;;;;;;;;;5001514;28;20605;-75
2021/11/25 06:51:17;;;;;;;68.23;43.20;;;;;;;;;;5001764;28;20679;-74
2021/11/25 06:53:45;;;;;;;66.53;41.47;;;;;;;;;;5001119;28;20235;-74
2021/11/25 06:56:12;;;;;;;62.33;38.40;;;;;;;;;;5002107;28;20298;-74
2021/11/25 06:58:39;;;;;;;70.90;45.00;;;;;;;;;;5000271;28;20281;-74
2021/11/25 07:01:07;;;;;;;70.20;43.80;;;;;;;;;;4998941;28;20274;-74
2021/11/25 07:03:34;;;;;;;72.50;43.33;;;;;;;;;;5000797;28;20628;-74
2021/11/25 07:06:01;;;;;;;77.13;47.47;;;;;;;;;;4999315;28;20223;-74
2021/11/25 07:08:28;;;;;;;73.60;44.33;;;;;;;;;;4999334;28;20307;-74
2021/11/25 07:10:55;;;;;;;66.03;43.63;;;;;;;;;;4998403;28;20621;-77
2021/11/25 07:13:22;;;;;;;75.47;45.80;;;;;;;;;;4998319;28;20240;-73
2021/11/25 07:15:48;;;;;;;74.77;44.57;;;;;;;;;;4998166;28;20278;-73
2021/11/25 07:18:15;;;;;;;73.27;46.73;;;;;;;;;;4996650;28;20635;-74
2021/11/25 07:20:41;;;;;;;72.77;44.90;;;;;;;;;;4998408;28;20311;-74
2021/11/25 07:23:08;;;;;;;71.47;42.57;;;;;;;;;;4999109;28;20208;-73
2021/11/25 07:25:34;;;;;;;76.83;47.13;;;;;;;;;;5000168;28;20214;-73
2021/11/25 07:28:02;;;;;;;72.40;46.00;;;;;;;;;;5000516;28;20219;-74
2021/11/25 07:30:29;;;;;;;76.77;48.10;;;;;;;;;;4999038;28;20266;-73
2021/11/25 07:32:55;;;;;;;81.50;48.53;;;;;;;;;;4999648;28;20227;-74
2021/11/25 07:35:23;;;;;;;80.10;48.20;;;;;;;;;;4998433;28;20215;-74
2021/11/25 07:37:52;;;;;;;84.37;51.30;;;;;;;;;;4998776;28;20745;-73
2021/11/25 07:40:20;;;;;;;85.13;50.33;;;;;;;;;;4999169;28;20655;-74
2021/11/25 07:42:48;;;;;;;78.80;48.27;;;;;;;;;;4997779;28;20216;-73
2021/11/25 07:45:16;;;;;;;82.83;49.07;;;;;;;;;;4998944;28;20204;-74
2021/11/25 07:47:43;;;;;;;86.60;49.30;;;;;;;;;;4998495;28;20243;-74
2021/11/25 07:50:12;;;;;;;91.23;50.10;;;;;;;;;;4998652;28;20469;-74
2021/11/25 07:52:40;;;;;;;92.83;49.60;;;;;;;;;;5000007;28;20335;-74
2021/11/25 07:55:08;;;;;;;89.23;50.20;;;;;;;;;;4998263;28;20311;-74
2021/11/25 07:57:34;;;;;;;94.83;52.10;;;;;;;;;;4996260;28;20212;-74
2021/11/25 08:00:01;;;;;;;87.50;49.87;;;;;;;;;;4999537;28;20684;-74
2021/11/25 08:02:31;;;;;;;94.07;49.93;;;;;;;;;;4997803;28;20714;-74
2021/11/25 08:04:58;;;;;;;95.07;52.83;;;;;;;;;;4997487;28;20234;-74
2021/11/25 08:07:24;;;;;;;102.53;54.80;;;;;;;;;;4996865;28;20216;-73
2021/11/25 08:09:51;;;;;;;103.93;55.17;;;;;;;;;;4998416;28;20659;-76
2021/11/25 08:12:17;;;;;;;103.80;55.17;;;;;;;;;;4997317;28;20320;-74
2021/11/25 08:14:44;;;;;;;102.10;52.33;;;;;;;;;;4998835;28;20232;-74
2021/11/25 08:17:10;;;;;;;120.87;58.70;;;;;;;;;;4996279;28;20247;-75
2021/11/25 08:19:38;;;;;;;113.87;57.07;;;;;;;;;;4999564;28;20222;-76
2021/11/25 08:22:07;;;;;;;109.63;53.63;;;;;;;;;;4998956;28;20259;-76
2021/11/25 08:24:33;;;;;;;122.43;59.30;;;;;;;;;;4998701;28;20221;-77
2021/11/25 08:27:00;;;;;;;115.03;57.63;;;;;;;;;;4998175;28;20613;-75
2021/11/25 08:29:27;;;;;;;127.67;59.63;;;;;;;;;;4998345;28;20219;-74
2021/11/25 08:31:54;;;;;;;130.10;63.07;;;;;;;;;;4998221;28;20208;-75
2021/11/25 08:34:20;;;;;;;105.50;55.10;;;;;;;;;;4997698;28;20294;-75
2021/11/25 08:36:48;;;;;;;140.70;61.90;;;;;;;;;;4999410;28;20204;-75
2021/11/25 08:39:15;;;;;;;132.23;61.60;;;;;;;;;;4997046;28;21115;-76
2021/11/25 08:41:41;;;;;;;129.70;62.97;;;;;;;;;;4997605;28;20266;-77
2021/11/25 08:44:07;;;;;;;142.40;64.53;;;;;;;;;;4997412;28;20216;-77
2021/11/25 08:46:34;;;;;;;135.77;62.53;;;;;;;;;;4998677;28;20220;-77
2021/11/25 08:49:00;;;;;;;115.70;59.17;;;;;;;;;;4998103;28;20650;-77
2021/11/25 08:51:29;;;;;;;134.97;61.13;;;;;;;;;;4995497;28;20222;-77
2021/11/25 08:54:00;;;;;;;116.17;55.43;;;;;;;;;;4998650;28;20689;-75
2021/11/25 08:56:27;;;;;;;120.40;57.97;;;;;;;;;;4996198;28;20219;-76
2021/11/25 08:58:53;;;;;;;122.37;59.17;;;;;;;;;;4998487;28;20757;-75
2021/11/25 09:01:19;;;;;;;121.90;60.27;;;;;;;;;;4996739;28;20215;-76
2021/11/25 09:03:46;;;;;;;122.93;61.27;;;;;;;;;;4997317;28;20602;-77
2021/11/25 09:06:13;;;;;;;126.67;63.57;;;;;;;;;;4995900;28;20215;-77
2021/11/25 09:08:40;;;;;;;126.13;59.77;;;;;;;;;;4996369;28;20274;-77
2021/11/25 09:11:08;;;;;;;119.23;58.37;;;;;;;;;;4996990;28;20216;-77
2021/11/25 09:13:35;;;;;;;125.13;58.33;;;;;;;;;;4994486;28;20217;-77
2021/11/25 09:16:01;;;;;;;125.37;59.27;;;;;;;;;;4997188;28;20887;-76
2021/11/25 09:18:27;;;;;;;119.50;60.33;;;;;;;;;;4996297;28;20768;-74
2021/11/25 09:20:54;;;;;;;106.80;56.50;;;;;;;;;;4996849;28;20256;-75
2021/11/25 09:23:21;;;;;;;123.37;59.30;;;;;;;;;;4997545;28;20862;-75
2021/11/25 09:25:50;;;;;;;122.90;59.40;;;;;;;;;;4996595;28;20235;-75
2021/11/25 09:28:20;;;;;;;122.63;58.70;;;;;;;;;;4997214;28;20351;-75
2021/11/25 09:30:47;;;;;;;119.60;56.40;;;;;;;;;;4996826;28;20255;-75
2021/11/25 09:33:14;;;;;;;123.50;57.93;;;;;;;;;;4996346;28;20232;-75
2021/11/25 09:35:41;;;;;;;121.83;57.60;;;;;;;;;;4998515;28;20632;-74
2021/11/25 09:38:09;;;;;;;105.30;55.63;;;;;;;;;;4997488;28;20255;-75
2021/11/25 09:40:36;;;;;;;114.60;58.13;;;;;;;;;;5002114;28;20220;-75
2021/11/25 09:43:05;;;;;;;116.53;56.30;;;;;;;;;;4999205;28;20664;-74
2021/11/25 09:45:36;;;;;;;123.67;57.63;;;;;;;;;;5000969;28;20683;-75
2021/11/25 09:48:06;;;;;;;110.23;55.13;;;;;;;;;;5000701;28;20806;-75
2021/11/25 09:50:36;;;;;;;114.23;54.87;;;;;;;;;;5001375;28;20643;-75
2021/11/25 09:53:08;;;;;;;87.57;49.90;;;;;;;;;;5000904;28;20240;-75
2021/11/25 09:55:35;;;;;;;104.93;53.10;;;;;;;;;;5000156;28;20826;-75
2021/11/25 09:58:03;;;;;;;83.40;46.77;;;;;;;;;;5000384;28;20220;-76
2021/11/25 10:00:32;;;;;;;81.13;45.90;;;;;;;;;;5000462;28;20291;-75
2021/11/25 10:03:00;;;;;;;79.60;44.30;;;;;;;;;;5000372;28;20279;-75
2021/11/25 10:05:27;;;;;;;82.50;45.50;;;;;;;;;;5001193;28;20830;-75
2021/11/25 10:07:53;;;;;;;80.70;46.07;;;;;;;;;;4999516;28;20595;-75
2021/11/25 10:10:25;;;;;;;81.83;45.43;;;;;;;;;;4999205;28;20274;-77
2021/11/25 10:12:57;;;;;;;74.87;43.60;;;;;;;;;;5000856;28;20267;-75
2021/11/25 10:15:30;;;;;;;68.23;42.37;;;;;;;;;;4999358;28;20758;-75
2021/11/25 10:17:59;;;;;;;67.37;39.80;;;;;;;;;;5000134;28;20221;-75
2021/11/25 10:20:33;;;;;;;60.77;37.50;;;;;;;;;;4998810;28;20202;-75
2021/11/25 10:23:15;;;;;;;58.17;37.60;;;;;;;;;;4999381;28;21111;-77
2021/11/25 10:25:45;;;;;;;52.23;33.97;;;;;;;;;;5000078;28;20673;-75
2021/11/25 10:28:19;;;;;;;31.03;20.00;;;;;;;;;;4998521;28;20301;-75
2021/11/25 10:30:46;;;;;;;29.90;15.63;;;;;;;;;;4999480;28;20736;-75
2021/11/25 10:33:12;;;;;;;26.17;15.33;;;;;;;;;;4999173;28;20292;-75
2021/11/25 10:35:50;;;;;;;27.40;15.27;;;;;;;;;;4999687;28;21067;-75
2021/11/25 10:38:35;;;;;;;14.07;6.63;;;;;;;;;;4998876;28;20206;-75
2021/11/25 10:41:13;;;;;;;9.93;4.83;;;;;;;;;;4999215;28;20285;-74
2021/11/25 10:43:40;;;;;;;7.83;3.10;;;;;;;;;;4999064;28;20295;-75
2021/11/25 10:46:07;;;;;;;13.70;3.23;;;;;;;;;;4999417;28;20209;-75
2021/11/25 10:48:38;;;;;;;6.53;1.70;;;;;;;;;;4998694;28;20333;-76
2021/11/25 10:51:30;;;;;;;7.30;2.40;;;;;;;;;;4997710;28;20245;-75
2021/11/25 10:54:04;;;;;;;9.53;1.63;;;;;;;;;;4998806;28;20274;-75
2021/11/25 10:56:38;;;;;;;5.33;1.00;;;;;;;;;;4999185;28;20216;-75
2021/11/25 10:59:05;;;;;;;7.20;1.27;;;;;;;;;;4999700;28;20221;-74
2021/11/25 11:01:36;;;;;;;5.60;1.60;;;;;;;;;;4999369;28;20221;-74
2021/11/25 11:04:03;;;;;;;6.60;0.90;;;;;;;;;;4999237;28;20969;-75
2021/11/25 11:06:33;;;;;;;6.47;1.33;;;;;;;;;;4999133;28;20556;-74
2021/11/25 11:09:00;;;;;;;5.93;1.33;;;;;;;;;;4998516;28;20213;-74
2021/11/25 11:11:27;;;;;;;5.87;1.17;;;;;;;;;;4999617;28;20206;-74
2021/11/25 11:14:21;;;;;;;5.50;1.43;;;;;;;;;;4998514;28;20267;-74
2021/11/25 11:16:51;;;;;;;9.80;1.70;;;;;;;;;;4998674;28;20213;-74
2021/11/25 11:19:18;;;;;;;8.07;1.20;;;;;;;;;;4998212;28;21015;-74
2021/11/25 11:21:49;;;;;;;8.63;1.57;;;;;;;;;;4998571;28;20754;-74
2021/11/25 11:24:18;;;;;;;10.30;1.30;;;;;;;;;;4999159;28;20283;-74
2021/11/25 11:26:47;;;;;;;7.47;1.83;;;;;;;;;;4998121;28;20216;-75
2021/11/25 11:29:16;;;;;;;7.53;1.30;;;;;;;;;;4998439;28;20671;-75
2021/11/25 11:31:44;;;;;;;7.30;2.30;;;;;;;;;;4999320;28;20755;-75
2021/11/25 11:34:12;;;;;;;5.37;1.30;;;;;;;;;;4982310;28;20280;-74
2021/11/25 11:36:40;;;;;;;7.23;1.43;;;;;;;;;;4988544;28;20230;-74
2021/11/25 11:39:09;;;;;;;5.97;1.10;;;;;;;;;;4997410;28;20307;-74
2021/11/25 11:41:37;;;;;;;8.17;1.40;;;;;;;;;;4999371;28;21149;-73
2021/11/25 11:44:04;;;;;;;6.77;1.67;;;;;;;;;;4999649;28;20752;-73
2021/11/25 11:46:32;;;;;;;5.73;0.90;;;;;;;;;;4997929;28;20241;-74
2021/11/25 11:49:00;;;;;;;9.13;1.60;;;;;;;;;;4998286;28;20246;-73
2021/11/25 11:51:27;;;;;;;11.13;2.17;;;;;;;;;;4998013;28;20264;-73
2021/11/25 11:53:56;;;;;;;6.33;1.50;;;;;;;;;;4998427;28;20516;-72
2021/11/25 11:56:36;;;;;;;7.80;1.80;;;;;;;;;;4998590;28;20226;-73
2021/11/25 11:59:05;;;;;;;7.10;1.40;;;;;;;;;;4998140;28;20227;-73
2021/11/25 12:01:32;;;;;;;8.97;1.87;;;;;;;;;;4998212;28;20216;-73
2021/11/25 12:04:11;;;;;;;4.83;1.43;;;;;;;;;;4997325;28;20362;-73
2021/11/25 12:06:40;;;;;;;6.60;1.20;;;;;;;;;;4997932;28;20209;-74
2021/11/25 12:09:29;;;;;;;5.33;1.37;;;;;;;;;;4997640;28;20814;-73
2021/11/25 12:12:06;;;;;;;7.80;1.60;;;;;;;;;;4996572;28;20703;-73
2021/11/25 12:14:34;;;;;;;5.80;1.40;;;;;;;;;;4997564;28;20215;-73
2021/11/25 12:17:02;;;;;;;9.73;1.40;;;;;;;;;;4996395;28;20835;-73
2021/11/25 12:19:32;;;;;;;8.67;1.60;;;;;;;;;;4997566;28;20241;-72
2021/11/25 12:22:00;;;;;;;5.80;1.57;;;;;;;;;;4996601;28;20636;-72
2021/11/25 12:24:34;;;;;;;8.03;1.73;;;;;;;;;;4996025;28;20211;-74
2021/11/25 12:27:31;;;;;;;9.30;1.87;;;;;;;;;;4997841;28;20211;-73
2021/11/25 12:30:10;;;;;;;10.50;2.00;;;;;;;;;;4998298;28;20581;-73
2021/11/25 12:32:49;;;;;;;8.63;1.60;;;;;;;;;;4998052;28;20474;-75
2021/11/25 12:35:44;;;;;;;6.60;1.60;;;;;;;;;;4998720;28;20599;-73
2021/11/25 12:38:18;;;;;;;7.63;1.93;;;;;;;;;;4998654;28;20230;-75
2021/11/25 12:41:04;;;;;;;6.57;2.07;;;;;;;;;;4997740;28;20236;-75
2021/11/25 12:43:40;;;;;;;7.53;1.57;;;;;;;;;;4997589;28;20216;-74
2021/11/25 12:46:10;;;;;;;7.43;1.53;;;;;;;;;;4998829;28;20312;-74
2021/11/25 12:48:39;;;;;;;5.83;1.30;;;;;;;;;;4999449;28;20306;-74
2021/11/25 12:51:10;;;;;;;7.23;1.47;;;;;;;;;;4998298;28;20229;-74
2021/11/25 12:53:40;;;;;;;7.27;1.07;;;;;;;;;;4999408;28;20263;-74
2021/11/25 12:56:10;;;;;;;5.00;1.17;;;;;;;;;;4998115;28;20280;-74
2021/11/25 12:58:43;;;;;;;6.67;1.20;;;;;;;;;;4998397;28;20213;-73
2021/11/25 13:01:13;;;;;;;7.63;1.33;;;;;;;;;;4996292;28;20213;-73
2021/11/25 13:03:40;;;;;;;5.10;1.40;;;;;;;;;;4996930;28;20296;-73
2021/11/25 13:06:06;;;;;;;10.03;1.43;;;;;;;;;;4995583;28;20218;-74
2021/11/25 13:08:37;;;;;;;6.63;1.20;;;;;;;;;;4997173;28;20580;-74
2021/11/25 13:11:05;;;;;;;5.67;1.33;;;;;;;;;;4994825;28;20217;-74
2021/11/25 13:13:34;;;;;;;6.97;1.37;;;;;;;;;;4998477;28;20712;-75
2021/11/25 13:16:04;;;;;;;8.03;1.37;;;;;;;;;;5000192;28;20249;-74
2021/11/25 13:18:42;;;;;;;11.77;2.00;;;;;;;;;;5000169;28;20689;-74
2021/11/25 13:21:18;;;;;;;6.60;1.40;;;;;;;;;;5000196;28;20274;-74
2021/11/25 13:23:48;;;;;;;14.90;2.30;;;;;;;;;;5000314;28;20209;-73
2021/11/25 13:26:15;;;;;;;6.03;1.40;;;;;;;;;;5000152;28;20214;-74
2021/11/25 13:28:41;;;;;;;10.60;1.57;;;;;;;;;;5001316;28;20234;-73
2021/11/25 13:31:17;;;;;;;9.30;1.80;;;;;;;;;;4999857;28;20221;-73
2021/11/25 13:33:55;;;;;;;7.67;1.43;;;;;;;;;;5001284;28;20864;-74
2021/11/25 13:36:23;;;;;;;10.00;1.53;;;;;;;;;;4999132;28;20234;-73
2021/11/25 13:38:50;;;;;;;6.70;2.23;;;;;;;;;;5000016;28;20292;-73
2021/11/25 13:41:18;;;;;;;5.83;1.43;;;;;;;;;;5000774;28;20236;-76
2021/11/25 13:43:48;;;;;;;6.30;1.10;;;;;;;;;;4999424;28;20213;-74
2021/11/25 13:46:16;;;;;;;4.57;1.00;;;;;;;;;;5000820;28;20205;-74
2021/11/25 13:48:43;;;;;;;9.03;2.03;;;;;;;;;;4999453;28;20993;-74
2021/11/25 13:51:20;;;;;;;8.00;1.70;;;;;;;;;;5000217;28;20303;-74
2021/11/25 13:53:46;;;;;;;6.00;0.80;;;;;;;;;;5000304;28;20263;-74
2021/11/25 13:56:13;;;;;;;6.17;1.00;;;;;;;;;;5000177;28;20237;-74
2021/11/25 13:58:39;;;;;;;4.30;0.87;;;;;;;;;;5001332;28;20557;-74
2021/11/25 14:01:10;;;;;;;7.53;1.33;;;;;;;;;;4998907;28;20217;-74
2021/11/25 14:03:37;;;;;;;5.43;0.70;;;;;;;;;;5000072;28;20364;-74
2021/11/25 14:06:05;;;;;;;5.03;1.13;;;;;;;;;;4998978;28;20210;-74
2021/11/25 14:08:32;;;;;;;4.87;1.07;;;;;;;;;;4999621;28;20216;-74
2021/11/25 14:11:10;;;;;;;4.43;1.10;;;;;;;;;;5000800;28;20868;-74
2021/11/25 14:13:36;;;;;;;6.37;0.83;;;;;;;;;;4999616;28;20588;-74
2021/11/25 14:16:14;;;;;;;6.93;1.17;;;;;;;;;;4999882;28;20229;-74
2021/11/25 14:18:42;;;;;;;5.60;1.33;;;;;;;;;;4999676;28;20350;-74
2021/11/25 14:21:08;;;;;;;5.73;1.23;;;;;;;;;;4999332;28;20318;-74
2021/11/25 14:23:34;;;;;;;6.20;1.37;;;;;;;;;;5000525;28;20214;-74
2021/11/25 14:26:13;;;;;;;7.20;1.27;;;;;;;;;;4999382;28;20213;-74
2021/11/25 14:31:27;;;;;;;4.57;1.13;;;;;;;;;;4999995;28;20782;-74
2021/11/25 14:33:57;;;;;;;5.43;1.03;;;;;;;;;;4998756;28;20236;-74